Hlavní strana
METAR-TAF:

METAR-TAF

Letiště :

Mezinárodní letiště Šanghaj Pchu-tung

Šanghaj-Pudong, Čína

zeměpisná šířka: 31-07N, zeměpisná délka: 121-46E, výška: 4 m

Aktuální stav počasí

Zpráva byla vytvořena před 44 minutami, v 17:30 UTC
Severozápadní vítr 6 kt
Teplota 13°C
Vlhkost vzduchu 67%
Tlak 1025 hPa
Viditelnost 10 km a více
Žádná oblačnost pod 1500 m, nevyskytují se cumulonimby.

METAR: ZSPD 181730Z 32003MPS CAVOK 13/07 Q1025 NOSIG

Čas: 02:14 (18:14 UTC)

Předpověď počasí

Zpráva byla vytvořena před 3 hodinami a 3 minutami, v 15:11 UTC
Předpověď platná od 18 v 18 UTC do 19 v 18 UTC
Severoseverovýchodní vítr 8 kt
Viditelnost: 6000 m
Polojasno ve výšce 2000 ft

TAF: ZSPD 181511Z 1818/1918 02004MPS 6000 SCT020 TX21/1906Z TN11/1821Z

Stav a předpovědi počasí z více než 4 000 letišť (zprávy METAR a TAF).

Červené a žluté tečky na mapě představují dostupné meteorologické stanice.

Když kurzor umístíte na tečku, zobrazí se název stanice.

Pak kliknutím zobrazíte stav a předpověď počasí.

Chcete-li změnit mapu, kliknutím na zelené tlačítko se znaménkem +mapu přiblížíte, kliknutím na zelené tlačítko se znaménkem – mapu oddálíte a kliknutím na zelené šipky přejdete na sousední mapy.


METAR-TAF: